sensor_id;sensor_type;location;lat;lon;timestamp;P1;durP1;ratioP1;P2;durP2;ratioP2
39882;SDS011;55824;52.220;21.040;2023-10-31T00:01:57;7.97;;;5.68;;
39882;SDS011;55824;52.220;21.040;2023-10-31T00:04:23;7.70;;;5.43;;
39882;SDS011;55824;52.220;21.040;2023-10-31T00:06:49;14.25;;;5.25;;
39882;SDS011;55824;52.220;21.040;2023-10-31T00:09:15;7.38;;;5.18;;
39882;SDS011;55824;52.220;21.040;2023-10-31T00:11:42;10.05;;;5.60;;
39882;SDS011;55824;52.220;21.040;2023-10-31T00:14:09;7.30;;;5.40;;
39882;SDS011;55824;52.220;21.040;2023-10-31T00:16:35;7.55;;;5.32;;
39882;SDS011;55824;52.220;21.040;2023-10-31T00:19:01;7.55;;;5.15;;
39882;SDS011;55824;52.220;21.040;2023-10-31T00:21:27;6.55;;;4.68;;
39882;SDS011;55824;52.220;21.040;2023-10-31T00:23:53;8.10;;;5.35;;
39882;SDS011;55824;52.220;21.040;2023-10-31T00:26:19;7.55;;;5.03;;
39882;SDS011;55824;52.220;21.040;2023-10-31T00:28:45;9.18;;;5.20;;
39882;SDS011;55824;52.220;21.040;2023-10-31T00:31:10;8.00;;;5.10;;
39882;SDS011;55824;52.220;21.040;2023-10-31T00:33:37;9.95;;;5.70;;
39882;SDS011;55824;52.220;21.040;2023-10-31T00:36:03;9.90;;;5.25;;
39882;SDS011;55824;52.220;21.040;2023-10-31T00:38:29;9.05;;;5.18;;
39882;SDS011;55824;52.220;21.040;2023-10-31T00:40:55;7.35;;;5.57;;
39882;SDS011;55824;52.220;21.040;2023-10-31T00:43:21;7.53;;;4.93;;
39882;SDS011;55824;52.220;21.040;2023-10-31T00:45:47;5.88;;;4.75;;
39882;SDS011;55824;52.220;21.040;2023-10-31T00:48:13;9.30;;;4.78;;
39882;SDS011;55824;52.220;21.040;2023-10-31T00:50:39;8.32;;;4.90;;
39882;SDS011;55824;52.220;21.040;2023-10-31T00:53:06;7.80;;;5.07;;
39882;SDS011;55824;52.220;21.040;2023-10-31T00:55:33;8.75;;;4.72;;
39882;SDS011;55824;52.220;21.040;2023-10-31T00:57:58;6.63;;;4.53;;
39882;SDS011;55824;52.220;21.040;2023-10-31T01:00:25;10.55;;;4.60;;
39882;SDS011;55824;52.220;21.040;2023-10-31T01:02:50;8.57;;;4.97;;
39882;SDS011;55824;52.220;21.040;2023-10-31T01:05:16;7.15;;;4.97;;
39882;SDS011;55824;52.220;21.040;2023-10-31T01:07:42;6.43;;;4.30;;
39882;SDS011;55824;52.220;21.040;2023-10-31T01:10:08;7.03;;;4.65;;
39882;SDS011;55824;52.220;21.040;2023-10-31T01:12:35;8.80;;;4.10;;
39882;SDS011;55824;52.220;21.040;2023-10-31T01:15:01;7.55;;;4.75;;
39882;SDS011;55824;52.220;21.040;2023-10-31T01:17:27;6.55;;;4.38;;
39882;SDS011;55824;52.220;21.040;2023-10-31T01:19:53;8.77;;;4.13;;
39882;SDS011;55824;52.220;21.040;2023-10-31T01:22:19;7.85;;;5.10;;
39882;SDS011;55824;52.220;21.040;2023-10-31T01:24:45;7.82;;;4.95;;
39882;SDS011;55824;52.220;21.040;2023-10-31T01:27:11;6.15;;;4.72;;
39882;SDS011;55824;52.220;21.040;2023-10-31T01:29:37;7.93;;;4.60;;
39882;SDS011;55824;52.220;21.040;2023-10-31T01:32:03;7.15;;;4.30;;
39882;SDS011;55824;52.220;21.040;2023-10-31T01:34:29;7.20;;;4.25;;
39882;SDS011;55824;52.220;21.040;2023-10-31T01:36:55;8.00;;;5.18;;
39882;SDS011;55824;52.220;21.040;2023-10-31T01:39:21;6.68;;;4.22;;
39882;SDS011;55824;52.220;21.040;2023-10-31T01:41:47;8.07;;;4.20;;
39882;SDS011;55824;52.220;21.040;2023-10-31T01:44:13;5.75;;;4.03;;
39882;SDS011;55824;52.220;21.040;2023-10-31T01:46:39;7.13;;;4.80;;
39882;SDS011;55824;52.220;21.040;2023-10-31T01:49:05;6.18;;;3.97;;
39882;SDS011;55824;52.220;21.040;2023-10-31T01:51:32;8.43;;;4.22;;
39882;SDS011;55824;52.220;21.040;2023-10-31T01:53:58;5.82;;;4.10;;
39882;SDS011;55824;52.220;21.040;2023-10-31T01:56:24;7.45;;;4.60;;
39882;SDS011;55824;52.220;21.040;2023-10-31T01:58:51;5.82;;;4.00;;
39882;SDS011;55824;52.220;21.040;2023-10-31T02:01:18;7.72;;;4.45;;
39882;SDS011;55824;52.220;21.040;2023-10-31T02:03:45;7.93;;;4.35;;
39882;SDS011;55824;52.220;21.040;2023-10-31T02:06:11;5.90;;;4.30;;
39882;SDS011;55824;52.220;21.040;2023-10-31T02:08:37;5.82;;;3.80;;
39882;SDS011;55824;52.220;21.040;2023-10-31T02:11:03;8.40;;;5.53;;
39882;SDS011;55824;52.220;21.040;2023-10-31T02:13:30;12.38;;;5.38;;
39882;SDS011;55824;52.220;21.040;2023-10-31T02:15:56;6.30;;;4.30;;
39882;SDS011;55824;52.220;21.040;2023-10-31T02:18:22;6.22;;;4.40;;
39882;SDS011;55824;52.220;21.040;2023-10-31T02:20:48;7.05;;;4.00;;
39882;SDS011;55824;52.220;21.040;2023-10-31T02:23:17;5.40;;;3.85;;
39882;SDS011;55824;52.220;21.040;2023-10-31T02:25:43;7.65;;;4.10;;
39882;SDS011;55824;52.220;21.040;2023-10-31T02:28:09;10.80;;;4.10;;
39882;SDS011;55824;52.220;21.040;2023-10-31T02:30:35;6.22;;;3.70;;
39882;SDS011;55824;52.220;21.040;2023-10-31T02:33:01;5.95;;;3.60;;
39882;SDS011;55824;52.220;21.040;2023-10-31T02:35:27;7.97;;;4.32;;
39882;SDS011;55824;52.220;21.040;2023-10-31T02:37:53;7.40;;;3.80;;
39882;SDS011;55824;52.220;21.040;2023-10-31T02:40:19;6.28;;;3.70;;
39882;SDS011;55824;52.220;21.040;2023-10-31T02:42:45;5.50;;;3.63;;
39882;SDS011;55824;52.220;21.040;2023-10-31T02:45:11;7.82;;;3.80;;
39882;SDS011;55824;52.220;21.040;2023-10-31T02:47:37;6.22;;;3.35;;
39882;SDS011;55824;52.220;21.040;2023-10-31T02:50:03;6.70;;;4.55;;
39882;SDS011;55824;52.220;21.040;2023-10-31T02:52:30;5.82;;;3.70;;
39882;SDS011;55824;52.220;21.040;2023-10-31T02:54:56;6.28;;;3.63;;
39882;SDS011;55824;52.220;21.040;2023-10-31T02:57:22;5.57;;;3.60;;
39882;SDS011;55824;52.220;21.040;2023-10-31T02:59:48;4.68;;;3.63;;
39882;SDS011;55824;52.220;21.040;2023-10-31T03:02:14;6.25;;;3.83;;
39882;SDS011;55824;52.220;21.040;2023-10-31T03:04:40;6.22;;;3.60;;
39882;SDS011;55824;52.220;21.040;2023-10-31T03:07:06;5.22;;;3.63;;
39882;SDS011;55824;52.220;21.040;2023-10-31T03:09:32;6.25;;;3.22;;
39882;SDS011;55824;52.220;21.040;2023-10-31T03:11:58;5.72;;;3.70;;
39882;SDS011;55824;52.220;21.040;2023-10-31T03:14:24;5.40;;;3.85;;
39882;SDS011;55824;52.220;21.040;2023-10-31T03:16:50;5.68;;;3.58;;
39882;SDS011;55824;52.220;21.040;2023-10-31T03:19:16;5.00;;;3.40;;
39882;SDS011;55824;52.220;21.040;2023-10-31T03:21:42;4.85;;;3.53;;
39882;SDS011;55824;52.220;21.040;2023-10-31T03:24:08;5.80;;;3.30;;
39882;SDS011;55824;52.220;21.040;2023-10-31T03:26:34;5.70;;;3.83;;
39882;SDS011;55824;52.220;21.040;2023-10-31T03:29:00;6.78;;;3.90;;
39882;SDS011;55824;52.220;21.040;2023-10-31T03:31:26;6.00;;;3.83;;
39882;SDS011;55824;52.220;21.040;2023-10-31T03:33:52;5.88;;;3.70;;
39882;SDS011;55824;52.220;21.040;2023-10-31T03:36:19;6.28;;;3.30;;
39882;SDS011;55824;52.220;21.040;2023-10-31T03:38:45;5.03;;;3.55;;
39882;SDS011;55824;52.220;21.040;2023-10-31T03:41:11;5.68;;;3.85;;
39882;SDS011;55824;52.220;21.040;2023-10-31T03:43:38;4.88;;;3.20;;
39882;SDS011;55824;52.220;21.040;2023-10-31T03:46:04;5.97;;;3.47;;
39882;SDS011;55824;52.220;21.040;2023-10-31T03:48:30;4.38;;;3.05;;
39882;SDS011;55824;52.220;21.040;2023-10-31T03:50:56;5.68;;;3.42;;
39882;SDS011;55824;52.220;21.040;2023-10-31T03:53:22;6.68;;;3.58;;
39882;SDS011;55824;52.220;21.040;2023-10-31T03:55:48;5.70;;;2.78;;
39882;SDS011;55824;52.220;21.040;2023-10-31T03:58:14;5.40;;;3.58;;
39882;SDS011;55824;52.220;21.040;2023-10-31T04:00:40;5.63;;;3.03;;
39882;SDS011;55824;52.220;21.040;2023-10-31T04:03:06;5.32;;;3.50;;
39882;SDS011;55824;52.220;21.040;2023-10-31T04:05:32;6.15;;;3.55;;
39882;SDS011;55824;52.220;21.040;2023-10-31T04:07:58;5.43;;;3.20;;
39882;SDS011;55824;52.220;21.040;2023-10-31T04:10:24;5.57;;;3.10;;
39882;SDS011;55824;52.220;21.040;2023-10-31T04:12:50;7.07;;;3.17;;
39882;SDS011;55824;52.220;21.040;2023-10-31T04:15:16;5.45;;;3.25;;
39882;SDS011;55824;52.220;21.040;2023-10-31T04:17:42;5.28;;;3.40;;
39882;SDS011;55824;52.220;21.040;2023-10-31T04:20:08;5.57;;;3.40;;
39882;SDS011;55824;52.220;21.040;2023-10-31T04:22:34;5.68;;;3.30;;
39882;SDS011;55824;52.220;21.040;2023-10-31T04:25:00;5.95;;;3.20;;
39882;SDS011;55824;52.220;21.040;2023-10-31T04:27:26;4.10;;;2.83;;
39882;SDS011;55824;52.220;21.040;2023-10-31T04:29:52;5.15;;;3.40;;
39882;SDS011;55824;52.220;21.040;2023-10-31T04:32:18;4.38;;;3.13;;
39882;SDS011;55824;52.220;21.040;2023-10-31T04:34:44;5.03;;;3.08;;
39882;SDS011;55824;52.220;21.040;2023-10-31T04:37:10;4.65;;;2.72;;
39882;SDS011;55824;52.220;21.040;2023-10-31T04:39:36;6.85;;;3.15;;
39882;SDS011;55824;52.220;21.040;2023-10-31T04:42:02;5.28;;;2.70;;
39882;SDS011;55824;52.220;21.040;2023-10-31T04:44:28;5.93;;;3.40;;
39882;SDS011;55824;52.220;21.040;2023-10-31T04:46:54;4.28;;;2.60;;
39882;SDS011;55824;52.220;21.040;2023-10-31T04:49:20;4.30;;;2.70;;
39882;SDS011;55824;52.220;21.040;2023-10-31T04:51:48;4.93;;;2.60;;
39882;SDS011;55824;52.220;21.040;2023-10-31T04:54:14;4.45;;;2.58;;
39882;SDS011;55824;52.220;21.040;2023-10-31T04:56:40;5.32;;;3.22;;
39882;SDS011;55824;52.220;21.040;2023-10-31T04:59:06;4.20;;;3.08;;
39882;SDS011;55824;52.220;21.040;2023-10-31T05:01:32;5.38;;;2.65;;
39882;SDS011;55824;52.220;21.040;2023-10-31T05:03:58;4.80;;;2.85;;
39882;SDS011;55824;52.220;21.040;2023-10-31T05:06:24;5.57;;;2.97;;
39882;SDS011;55824;52.220;21.040;2023-10-31T05:08:50;4.85;;;3.00;;
39882;SDS011;55824;52.220;21.040;2023-10-31T05:11:19;5.07;;;2.80;;
39882;SDS011;55824;52.220;21.040;2023-10-31T05:13:45;4.97;;;2.90;;
39882;SDS011;55824;52.220;21.040;2023-10-31T05:16:11;5.80;;;2.95;;
39882;SDS011;55824;52.220;21.040;2023-10-31T05:18:37;4.30;;;2.92;;
39882;SDS011;55824;52.220;21.040;2023-10-31T05:21:04;4.65;;;2.70;;
39882;SDS011;55824;52.220;21.040;2023-10-31T05:23:30;4.90;;;2.70;;
39882;SDS011;55824;52.220;21.040;2023-10-31T05:25:56;5.68;;;2.92;;
39882;SDS011;55824;52.220;21.040;2023-10-31T05:28:22;5.47;;;2.80;;
39882;SDS011;55824;52.220;21.040;2023-10-31T05:30:48;4.10;;;2.40;;
39882;SDS011;55824;52.220;21.040;2023-10-31T05:33:15;3.60;;;2.60;;
39882;SDS011;55824;52.220;21.040;2023-10-31T05:35:41;3.50;;;2.50;;
39882;SDS011;55824;52.220;21.040;2023-10-31T05:38:07;5.22;;;3.50;;
39882;SDS011;55824;52.220;21.040;2023-10-31T05:40:33;3.85;;;2.35;;
39882;SDS011;55824;52.220;21.040;2023-10-31T05:43:00;4.28;;;2.70;;
39882;SDS011;55824;52.220;21.040;2023-10-31T05:45:27;5.00;;;3.03;;
39882;SDS011;55824;52.220;21.040;2023-10-31T05:47:53;3.47;;;2.35;;
39882;SDS011;55824;52.220;21.040;2023-10-31T05:50:19;4.47;;;2.60;;
39882;SDS011;55824;52.220;21.040;2023-10-31T05:52:46;3.60;;;2.47;;
39882;SDS011;55824;52.220;21.040;2023-10-31T05:55:12;3.80;;;2.72;;
39882;SDS011;55824;52.220;21.040;2023-10-31T05:57:38;3.65;;;2.42;;
39882;SDS011;55824;52.220;21.040;2023-10-31T06:00:05;5.65;;;2.78;;
39882;SDS011;55824;52.220;21.040;2023-10-31T06:02:31;4.85;;;2.38;;
39882;SDS011;55824;52.220;21.040;2023-10-31T06:04:58;4.53;;;2.60;;
39882;SDS011;55824;52.220;21.040;2023-10-31T06:07:24;5.60;;;2.90;;
39882;SDS011;55824;52.220;21.040;2023-10-31T06:09:50;6.18;;;2.92;;
39882;SDS011;55824;52.220;21.040;2023-10-31T06:12:17;9.75;;;2.92;;
39882;SDS011;55824;52.220;21.040;2023-10-31T06:14:43;8.82;;;3.15;;
39882;SDS011;55824;52.220;21.040;2023-10-31T06:17:09;7.85;;;3.10;;
39882;SDS011;55824;52.220;21.040;2023-10-31T06:19:36;7.03;;;2.88;;
39882;SDS011;55824;52.220;21.040;2023-10-31T06:22:02;5.63;;;2.67;;
39882;SDS011;55824;52.220;21.040;2023-10-31T06:24:28;6.95;;;2.83;;
39882;SDS011;55824;52.220;21.040;2023-10-31T06:26:54;5.32;;;3.10;;
39882;SDS011;55824;52.220;21.040;2023-10-31T06:29:20;5.93;;;2.90;;
39882;SDS011;55824;52.220;21.040;2023-10-31T06:31:46;5.50;;;2.55;;
39882;SDS011;55824;52.220;21.040;2023-10-31T06:34:12;7.38;;;2.90;;
39882;SDS011;55824;52.220;21.040;2023-10-31T06:36:38;7.75;;;2.88;;
39882;SDS011;55824;52.220;21.040;2023-10-31T06:39:04;7.55;;;3.08;;
39882;SDS011;55824;52.220;21.040;2023-10-31T06:41:30;3.35;;;2.25;;
39882;SDS011;55824;52.220;21.040;2023-10-31T06:43:56;5.05;;;2.55;;
39882;SDS011;55824;52.220;21.040;2023-10-31T06:46:22;5.10;;;2.65;;
39882;SDS011;55824;52.220;21.040;2023-10-31T06:48:48;4.72;;;2.60;;
39882;SDS011;55824;52.220;21.040;2023-10-31T06:51:14;5.63;;;2.90;;
39882;SDS011;55824;52.220;21.040;2023-10-31T06:53:40;6.13;;;2.85;;
39882;SDS011;55824;52.220;21.040;2023-10-31T06:56:06;5.65;;;2.58;;
39882;SDS011;55824;52.220;21.040;2023-10-31T06:58:32;6.05;;;2.35;;
39882;SDS011;55824;52.220;21.040;2023-10-31T07:00:58;6.38;;;3.03;;
39882;SDS011;55824;52.220;21.040;2023-10-31T07:03:25;12.68;;;3.67;;
39882;SDS011;55824;52.220;21.040;2023-10-31T07:05:51;9.10;;;3.78;;
39882;SDS011;55824;52.220;21.040;2023-10-31T07:08:17;8.35;;;3.53;;
39882;SDS011;55824;52.220;21.040;2023-10-31T07:10:43;13.45;;;3.60;;
39882;SDS011;55824;52.220;21.040;2023-10-31T07:13:09;9.40;;;3.45;;
39882;SDS011;55824;52.220;21.040;2023-10-31T07:15:35;10.30;;;2.97;;
39882;SDS011;55824;52.220;21.040;2023-10-31T07:18:04;10.57;;;3.30;;
39882;SDS011;55824;52.220;21.040;2023-10-31T07:20:32;7.35;;;3.55;;
39882;SDS011;55824;52.220;21.040;2023-10-31T07:22:58;9.93;;;3.08;;
39882;SDS011;55824;52.220;21.040;2023-10-31T07:25:24;8.85;;;3.55;;
39882;SDS011;55824;52.220;21.040;2023-10-31T07:27:50;9.27;;;3.13;;
39882;SDS011;55824;52.220;21.040;2023-10-31T07:30:16;8.23;;;3.10;;
39882;SDS011;55824;52.220;21.040;2023-10-31T07:32:42;9.20;;;3.25;;
39882;SDS011;55824;52.220;21.040;2023-10-31T07:35:08;9.63;;;3.30;;
39882;SDS011;55824;52.220;21.040;2023-10-31T07:37:34;6.70;;;3.15;;
39882;SDS011;55824;52.220;21.040;2023-10-31T07:40:00;8.40;;;3.20;;
39882;SDS011;55824;52.220;21.040;2023-10-31T07:42:26;7.57;;;3.58;;
39882;SDS011;55824;52.220;21.040;2023-10-31T07:44:52;9.15;;;3.05;;
39882;SDS011;55824;52.220;21.040;2023-10-31T07:47:18;5.13;;;2.88;;
39882;SDS011;55824;52.220;21.040;2023-10-31T07:49:43;4.75;;;2.50;;
39882;SDS011;55824;52.220;21.040;2023-10-31T07:52:09;8.30;;;3.08;;
39882;SDS011;55824;52.220;21.040;2023-10-31T07:54:38;6.63;;;2.95;;
39882;SDS011;55824;52.220;21.040;2023-10-31T07:57:05;6.10;;;3.30;;
39882;SDS011;55824;52.220;21.040;2023-10-31T07:59:34;6.43;;;3.22;;
39882;SDS011;55824;52.220;21.040;2023-10-31T08:02:00;8.17;;;2.80;;
39882;SDS011;55824;52.220;21.040;2023-10-31T08:04:26;5.75;;;3.20;;
39882;SDS011;55824;52.220;21.040;2023-10-31T08:06:53;6.82;;;2.95;;
39882;SDS011;55824;52.220;21.040;2023-10-31T08:09:19;4.60;;;2.95;;
39882;SDS011;55824;52.220;21.040;2023-10-31T08:11:45;6.57;;;2.83;;
39882;SDS011;55824;52.220;21.040;2023-10-31T08:14:11;5.63;;;2.88;;
39882;SDS011;55824;52.220;21.040;2023-10-31T08:16:37;5.40;;;2.95;;
39882;SDS011;55824;52.220;21.040;2023-10-31T08:19:03;6.68;;;2.53;;
39882;SDS011;55824;52.220;21.040;2023-10-31T08:21:29;8.07;;;3.40;;
39882;SDS011;55824;52.220;21.040;2023-10-31T08:24:00;8.82;;;2.80;;
39882;SDS011;55824;52.220;21.040;2023-10-31T08:26:26;5.15;;;3.00;;
39882;SDS011;55824;52.220;21.040;2023-10-31T08:28:52;5.85;;;3.25;;
39882;SDS011;55824;52.220;21.040;2023-10-31T08:31:18;6.97;;;3.17;;
39882;SDS011;55824;52.220;21.040;2023-10-31T08:33:45;4.78;;;2.50;;
39882;SDS011;55824;52.220;21.040;2023-10-31T08:36:11;7.28;;;3.08;;
39882;SDS011;55824;52.220;21.040;2023-10-31T08:38:37;6.82;;;2.75;;
39882;SDS011;55824;52.220;21.040;2023-10-31T08:41:03;5.15;;;2.60;;
39882;SDS011;55824;52.220;21.040;2023-10-31T08:43:29;6.93;;;3.15;;
39882;SDS011;55824;52.220;21.040;2023-10-31T08:45:55;5.38;;;2.75;;
39882;SDS011;55824;52.220;21.040;2023-10-31T08:48:21;4.90;;;2.90;;
39882;SDS011;55824;52.220;21.040;2023-10-31T08:50:47;5.45;;;2.72;;
39882;SDS011;55824;52.220;21.040;2023-10-31T08:53:13;5.60;;;2.88;;
39882;SDS011;55824;52.220;21.040;2023-10-31T08:55:39;6.55;;;2.95;;
39882;SDS011;55824;52.220;21.040;2023-10-31T08:58:08;5.30;;;2.95;;
39882;SDS011;55824;52.220;21.040;2023-10-31T09:00:34;6.78;;;3.22;;
39882;SDS011;55824;52.220;21.040;2023-10-31T09:03:01;4.93;;;2.70;;
39882;SDS011;55824;52.220;21.040;2023-10-31T09:05:27;6.45;;;2.90;;
39882;SDS011;55824;52.220;21.040;2023-10-31T09:07:53;4.38;;;2.67;;
39882;SDS011;55824;52.220;21.040;2023-10-31T09:10:19;5.70;;;2.97;;
39882;SDS011;55824;52.220;21.040;2023-10-31T09:12:45;5.45;;;2.97;;
39882;SDS011;55824;52.220;21.040;2023-10-31T09:15:11;3.85;;;2.10;;
39882;SDS011;55824;52.220;21.040;2023-10-31T09:17:38;5.60;;;3.00;;
39882;SDS011;55824;52.220;21.040;2023-10-31T09:20:04;5.65;;;3.15;;
39882;SDS011;55824;52.220;21.040;2023-10-31T09:22:30;4.60;;;2.80;;
39882;SDS011;55824;52.220;21.040;2023-10-31T09:24:56;6.60;;;2.90;;
39882;SDS011;55824;52.220;21.040;2023-10-31T09:27:22;4.93;;;2.63;;
39882;SDS011;55824;52.220;21.040;2023-10-31T09:29:48;4.65;;;2.85;;
39882;SDS011;55824;52.220;21.040;2023-10-31T09:32:15;5.72;;;3.13;;
39882;SDS011;55824;52.220;21.040;2023-10-31T09:34:42;5.70;;;3.05;;
39882;SDS011;55824;52.220;21.040;2023-10-31T09:37:08;4.65;;;2.83;;
39882;SDS011;55824;52.220;21.040;2023-10-31T09:39:34;6.05;;;2.95;;
39882;SDS011;55824;52.220;21.040;2023-10-31T09:42:00;4.70;;;2.58;;
39882;SDS011;55824;52.220;21.040;2023-10-31T09:44:26;6.20;;;2.55;;
39882;SDS011;55824;52.220;21.040;2023-10-31T09:46:52;5.05;;;2.63;;
39882;SDS011;55824;52.220;21.040;2023-10-31T09:49:18;4.55;;;2.33;;
39882;SDS011;55824;52.220;21.040;2023-10-31T09:51:44;4.05;;;2.50;;
39882;SDS011;55824;52.220;21.040;2023-10-31T09:54:12;4.90;;;2.55;;
39882;SDS011;55824;52.220;21.040;2023-10-31T09:56:40;3.92;;;2.35;;
39882;SDS011;55824;52.220;21.040;2023-10-31T09:59:07;4.63;;;2.35;;
39882;SDS011;55824;52.220;21.040;2023-10-31T10:01:33;3.90;;;2.42;;
39882;SDS011;55824;52.220;21.040;2023-10-31T10:03:59;4.85;;;2.33;;
39882;SDS011;55824;52.220;21.040;2023-10-31T10:06:25;8.43;;;2.58;;
39882;SDS011;55824;52.220;21.040;2023-10-31T10:08:52;4.60;;;2.30;;
39882;SDS011;55824;52.220;21.040;2023-10-31T10:11:18;4.95;;;2.35;;
39882;SDS011;55824;52.220;21.040;2023-10-31T10:13:44;6.20;;;2.40;;
39882;SDS011;55824;52.220;21.040;2023-10-31T10:16:10;5.40;;;2.50;;
39882;SDS011;55824;52.220;21.040;2023-10-31T10:18:36;4.47;;;2.40;;
39882;SDS011;55824;52.220;21.040;2023-10-31T10:21:06;4.80;;;2.40;;
39882;SDS011;55824;52.220;21.040;2023-10-31T10:23:32;5.93;;;2.97;;
39882;SDS011;55824;52.220;21.040;2023-10-31T10:25:59;4.80;;;2.67;;
39882;SDS011;55824;52.220;21.040;2023-10-31T10:28:25;3.78;;;2.20;;
39882;SDS011;55824;52.220;21.040;2023-10-31T10:30:52;4.68;;;2.40;;
39882;SDS011;55824;52.220;21.040;2023-10-31T10:33:21;7.40;;;2.60;;
39882;SDS011;55824;52.220;21.040;2023-10-31T10:35:48;5.35;;;2.75;;
39882;SDS011;55824;52.220;21.040;2023-10-31T10:38:15;3.72;;;2.22;;
39882;SDS011;55824;52.220;21.040;2023-10-31T10:40:42;3.75;;;2.13;;
39882;SDS011;55824;52.220;21.040;2023-10-31T10:43:12;4.72;;;2.35;;
39882;SDS011;55824;52.220;21.040;2023-10-31T10:45:41;6.20;;;2.50;;
39882;SDS011;55824;52.220;21.040;2023-10-31T10:50:34;4.07;;;2.33;;
39882;SDS011;55824;52.220;21.040;2023-10-31T10:53:07;4.57;;;2.40;;
39882;SDS011;55824;52.220;21.040;2023-10-31T10:55:38;4.03;;;2.35;;
39882;SDS011;55824;52.220;21.040;2023-10-31T10:58:05;4.78;;;2.55;;
39882;SDS011;55824;52.220;21.040;2023-10-31T11:00:31;5.15;;;2.58;;
39882;SDS011;55824;52.220;21.040;2023-10-31T11:02:57;4.00;;;2.53;;
39882;SDS011;55824;52.220;21.040;2023-10-31T11:05:25;7.25;;;2.20;;
39882;SDS011;55824;52.220;21.040;2023-10-31T11:07:52;6.68;;;2.50;;
39882;SDS011;55824;52.220;21.040;2023-10-31T11:10:20;4.85;;;2.40;;
39882;SDS011;55824;52.220;21.040;2023-10-31T11:12:47;6.13;;;2.50;;
39882;SDS011;55824;52.220;21.040;2023-10-31T11:15:15;5.97;;;2.65;;
39882;SDS011;55824;52.220;21.040;2023-10-31T11:17:42;4.30;;;2.57;;
39882;SDS011;55824;52.220;21.040;2023-10-31T11:20:09;4.68;;;2.42;;
39882;SDS011;55824;52.220;21.040;2023-10-31T11:22:39;4.15;;;2.42;;
39882;SDS011;55824;52.220;21.040;2023-10-31T11:25:06;4.82;;;3.03;;
39882;SDS011;55824;52.220;21.040;2023-10-31T11:27:33;6.55;;;2.65;;
39882;SDS011;55824;52.220;21.040;2023-10-31T11:30:19;5.20;;;2.63;;
39882;SDS011;55824;52.220;21.040;2023-10-31T11:32:51;3.45;;;2.45;;
39882;SDS011;55824;52.220;21.040;2023-10-31T11:35:17;4.00;;;2.50;;
39882;SDS011;55824;52.220;21.040;2023-10-31T11:37:43;3.90;;;2.20;;
39882;SDS011;55824;52.220;21.040;2023-10-31T11:42:42;5.35;;;2.50;;
39882;SDS011;55824;52.220;21.040;2023-10-31T11:45:08;5.50;;;2.25;;
39882;SDS011;55824;52.220;21.040;2023-10-31T11:47:47;5.40;;;2.13;;
39882;SDS011;55824;52.220;21.040;2023-10-31T11:50:13;3.40;;;2.22;;
39882;SDS011;55824;52.220;21.040;2023-10-31T11:52:39;3.17;;;1.95;;
39882;SDS011;55824;52.220;21.040;2023-10-31T11:55:08;5.05;;;2.60;;
39882;SDS011;55824;52.220;21.040;2023-10-31T11:57:35;5.40;;;2.63;;
39882;SDS011;55824;52.220;21.040;2023-10-31T12:00:01;4.00;;;2.40;;
39882;SDS011;55824;52.220;21.040;2023-10-31T12:02:28;3.40;;;2.22;;
39882;SDS011;55824;52.220;21.040;2023-10-31T12:05:10;5.03;;;2.20;;
39882;SDS011;55824;52.220;21.040;2023-10-31T12:07:46;4.43;;;2.50;;
39882;SDS011;55824;52.220;21.040;2023-10-31T12:10:12;3.78;;;2.15;;
39882;SDS011;55824;52.220;21.040;2023-10-31T12:12:38;6.90;;;2.65;;
39882;SDS011;55824;52.220;21.040;2023-10-31T12:15:07;3.95;;;2.40;;
39882;SDS011;55824;52.220;21.040;2023-10-31T12:17:34;4.40;;;2.20;;
39882;SDS011;55824;52.220;21.040;2023-10-31T12:20:03;3.40;;;2.10;;
39882;SDS011;55824;52.220;21.040;2023-10-31T12:22:30;3.97;;;2.50;;
39882;SDS011;55824;52.220;21.040;2023-10-31T12:25:05;3.95;;;2.15;;
39882;SDS011;55824;52.220;21.040;2023-10-31T12:30:17;3.60;;;2.13;;
39882;SDS011;55824;52.220;21.040;2023-10-31T12:32:44;3.67;;;2.35;;
39882;SDS011;55824;52.220;21.040;2023-10-31T12:35:14;5.03;;;2.05;;
39882;SDS011;55824;52.220;21.040;2023-10-31T12:37:45;5.13;;;2.03;;
39882;SDS011;55824;52.220;21.040;2023-10-31T12:40:12;7.43;;;2.38;;
39882;SDS011;55824;52.220;21.040;2023-10-31T12:42:41;3.42;;;2.00;;
39882;SDS011;55824;52.220;21.040;2023-10-31T12:45:08;4.10;;;2.22;;
39882;SDS011;55824;52.220;21.040;2023-10-31T12:47:34;3.90;;;2.05;;
39882;SDS011;55824;52.220;21.040;2023-10-31T12:50:07;4.25;;;2.00;;
39882;SDS011;55824;52.220;21.040;2023-10-31T12:52:53;3.97;;;2.28;;
39882;SDS011;55824;52.220;21.040;2023-10-31T12:55:23;4.30;;;2.30;;
39882;SDS011;55824;52.220;21.040;2023-10-31T12:57:50;5.25;;;2.15;;
39882;SDS011;55824;52.220;21.040;2023-10-31T13:00:17;3.10;;;1.90;;
39882;SDS011;55824;52.220;21.040;2023-10-31T13:02:58;3.70;;;2.28;;
39882;SDS011;55824;52.220;21.040;2023-10-31T13:05:25;3.95;;;1.70;;
39882;SDS011;55824;52.220;21.040;2023-10-31T13:07:51;4.28;;;1.70;;
39882;SDS011;55824;52.220;21.040;2023-10-31T13:10:18;3.13;;;1.45;;
39882;SDS011;55824;52.220;21.040;2023-10-31T13:12:45;3.22;;;1.85;;
39882;SDS011;55824;52.220;21.040;2023-10-31T13:15:14;3.55;;;1.60;;
39882;SDS011;55824;52.220;21.040;2023-10-31T13:17:40;4.30;;;2.00;;
39882;SDS011;55824;52.220;21.040;2023-10-31T13:20:08;2.90;;;1.77;;
39882;SDS011;55824;52.220;21.040;2023-10-31T13:22:35;2.88;;;1.67;;
39882;SDS011;55824;52.220;21.040;2023-10-31T13:25:01;2.53;;;1.65;;
39882;SDS011;55824;52.220;21.040;2023-10-31T13:27:31;3.08;;;1.40;;
39882;SDS011;55824;52.220;21.040;2023-10-31T13:29:57;3.33;;;1.70;;
39882;SDS011;55824;52.220;21.040;2023-10-31T13:32:23;2.28;;;1.40;;
39882;SDS011;55824;52.220;21.040;2023-10-31T13:34:49;3.28;;;1.67;;
39882;SDS011;55824;52.220;21.040;2023-10-31T13:37:15;3.20;;;1.60;;
39882;SDS011;55824;52.220;21.040;2023-10-31T13:39:41;2.63;;;1.35;;
39882;SDS011;55824;52.220;21.040;2023-10-31T13:42:07;2.10;;;1.30;;
39882;SDS011;55824;52.220;21.040;2023-10-31T13:44:35;2.13;;;1.45;;
39882;SDS011;55824;52.220;21.040;2023-10-31T13:47:01;1.83;;;1.40;;
39882;SDS011;55824;52.220;21.040;2023-10-31T13:49:27;2.67;;;1.50;;
39882;SDS011;55824;52.220;21.040;2023-10-31T13:51:53;2.17;;;1.35;;
39882;SDS011;55824;52.220;21.040;2023-10-31T13:54:19;2.63;;;1.55;;
39882;SDS011;55824;52.220;21.040;2023-10-31T13:56:45;2.92;;;1.50;;
39882;SDS011;55824;52.220;21.040;2023-10-31T13:59:11;2.60;;;1.33;;
39882;SDS011;55824;52.220;21.040;2023-10-31T14:01:37;3.22;;;1.42;;
39882;SDS011;55824;52.220;21.040;2023-10-31T14:04:04;3.45;;;1.60;;
39882;SDS011;55824;52.220;21.040;2023-10-31T14:06:30;2.25;;;1.40;;
39882;SDS011;55824;52.220;21.040;2023-10-31T14:08:58;3.20;;;1.67;;
39882;SDS011;55824;52.220;21.040;2023-10-31T14:11:24;2.67;;;1.20;;
39882;SDS011;55824;52.220;21.040;2023-10-31T14:13:50;1.83;;;1.45;;
39882;SDS011;55824;52.220;21.040;2023-10-31T14:16:17;1.67;;;1.13;;
39882;SDS011;55824;52.220;21.040;2023-10-31T14:18:43;3.17;;;1.67;;
39882;SDS011;55824;52.220;21.040;2023-10-31T14:21:11;2.00;;;1.40;;
39882;SDS011;55824;52.220;21.040;2023-10-31T14:23:37;2.53;;;1.65;;
39882;SDS011;55824;52.220;21.040;2023-10-31T14:26:03;2.85;;;1.20;;
39882;SDS011;55824;52.220;21.040;2023-10-31T14:28:30;1.90;;;1.15;;
39882;SDS011;55824;52.220;21.040;2023-10-31T14:30:56;2.08;;;1.40;;
39882;SDS011;55824;52.220;21.040;2023-10-31T14:33:22;2.42;;;1.40;;
39882;SDS011;55824;52.220;21.040;2023-10-31T14:35:48;2.58;;;1.40;;
39882;SDS011;55824;52.220;21.040;2023-10-31T14:38:14;1.90;;;1.30;;